Terminal Aerodrome Forecast
Issued by NWS

Home | Current Version | Previous Version | Text Only | Print | Product List | Glossary On
Versions: 1 2 3 4 5 6 7 8 9 10 11 12 13 14 15 16 17 18 19 20 21 22 23 24 25 26 27 28 29 30 31 32 33 34
000
FTUS46 KLOX 242323
TAFLAX
TAF
KLAX 242323Z 2500/2606 26015KT P6SM BKN200
     FM250300 27010KT P6SM BKN150
     FM250900 VRB03KT P6SM VCSH BKN070
     FM251300 VRB03KT P6SM VCSH BKN025 OVC050
     FM251700 25012KT P6SM BKN025
     FM252100 27015G22KT P6SM SCT025 BKN040
     FM260400 28012KT P6SM SCT030 BKN050=

USA.gov is the U.S. government's official web portal to all federal, state and local government web resources and services.